createdAt,value
2023-02-21T00:00:21.702Z,99.99
2023-02-21T00:01:21.655Z,99.99
2023-02-21T00:02:21.686Z,99.99
2023-02-21T00:03:21.624Z,99.99
2023-02-21T00:04:21.613Z,99.99
2023-02-21T00:05:21.697Z,99.99
2023-02-21T00:06:21.609Z,99.99
2023-02-21T00:07:21.558Z,99.99
2023-02-21T00:08:21.541Z,99.99
2023-02-21T00:09:21.520Z,99.99
2023-02-21T00:10:21.546Z,99.99
2023-02-21T00:11:23.810Z,99.44
2023-02-21T00:12:21.470Z,99.80
2023-02-21T00:13:21.462Z,99.86
2023-02-21T00:14:21.436Z,99.49
2023-02-21T00:15:21.446Z,99.80
2023-02-21T00:16:21.442Z,99.80
2023-02-21T00:17:21.401Z,99.99
2023-02-21T00:18:21.363Z,99.99
2023-02-21T00:19:21.350Z,99.99
2023-02-21T00:20:21.413Z,99.99
2023-02-21T00:21:21.325Z,99.99
2023-02-21T00:22:21.293Z,99.99
2023-02-21T00:23:21.276Z,99.90
2023-02-21T00:24:21.256Z,99.90
2023-02-21T00:25:21.267Z,99.80
2023-02-21T00:26:21.228Z,99.24
2023-02-21T00:27:21.205Z,99.49
2023-02-21T00:28:21.187Z,99.65
2023-02-21T00:29:21.167Z,99.18
2023-02-21T00:30:21.204Z,99.39
2023-02-21T00:31:21.205Z,99.18
2023-02-21T00:32:21.145Z,99.18
2023-02-21T00:33:21.141Z,99.99
2023-02-21T00:34:21.084Z,99.99
2023-02-21T00:35:21.100Z,99.80
2023-02-21T00:36:21.039Z,99.70
2023-02-21T00:37:22.028Z,99.70
2023-02-21T00:38:21.017Z,99.80
2023-02-21T00:39:20.994Z,99.80
2023-02-21T00:40:21.010Z,99.90
2023-02-21T00:41:20.963Z,99.18
2023-02-21T00:42:20.946Z,99.60
2023-02-21T00:43:20.931Z,99.70
2023-02-21T00:44:20.912Z,99.39
2023-02-21T00:45:20.919Z,99.18
2023-02-21T00:46:20.898Z,99.55
2023-02-21T00:47:20.862Z,99.55
2023-02-21T00:48:20.849Z,99.24
2023-02-21T00:49:20.822Z,99.76
2023-02-21T00:50:20.827Z,99.55
2023-02-21T00:51:21.796Z,99.99
2023-02-21T00:52:20.774Z,99.70
2023-02-21T00:53:20.757Z,99.70
2023-02-21T00:54:20.738Z,99.65
2023-02-21T00:55:20.754Z,99.44
2023-02-21T00:56:20.729Z,99.34
2023-02-21T00:57:20.688Z,99.34
2023-02-21T00:58:20.671Z,99.70
2023-02-21T00:59:20.657Z,99.44
2023-02-21T01:00:20.672Z,99.39
2023-02-21T01:01:20.674Z,99.39
2023-02-21T01:02:20.604Z,99.49
2023-02-21T01:03:20.590Z,99.65
2023-02-21T01:04:20.628Z,99.80
2023-02-21T01:05:20.591Z,99.44
2023-02-21T01:06:20.532Z,99.34
2023-02-21T01:07:20.521Z,99.39
2023-02-21T01:08:20.506Z,99.29
2023-02-21T01:09:20.496Z,99.70
2023-02-21T01:10:20.508Z,99.44
2023-02-21T01:11:20.460Z,99.34
2023-02-21T01:12:20.450Z,99.39
2023-02-21T01:13:20.418Z,99.39
2023-02-21T01:14:20.411Z,99.39
2023-02-21T01:15:20.422Z,99.49
2023-02-21T01:16:20.401Z,99.90
2023-02-21T01:17:20.379Z,99.60
2023-02-21T01:18:20.337Z,99.60
2023-02-21T01:19:20.331Z,99.70
2023-02-21T01:20:20.341Z,99.96
2023-02-21T01:21:20.313Z,99.70
2023-02-21T01:22:20.271Z,99.70
2023-02-21T01:23:20.253Z,99.99
2023-02-21T01:24:20.237Z,99.80
2023-02-21T01:25:20.247Z,99.80
2023-02-21T01:26:20.201Z,99.99
2023-02-21T01:27:20.185Z,99.18
2023-02-21T01:28:20.168Z,99.99
2023-02-21T01:29:20.149Z,99.99
2023-02-21T01:30:20.218Z,99.99
2023-02-21T01:31:20.147Z,99.99
2023-02-21T01:32:20.157Z,99.99
2023-02-21T01:33:20.084Z,99.99
2023-02-21T01:34:20.071Z,99.99
2023-02-21T01:35:20.074Z,99.99
2023-02-21T01:36:20.030Z,99.99
2023-02-21T01:37:20.015Z,99.99
2023-02-21T01:38:19.996Z,99.99
2023-02-21T01:39:19.981Z,99.80
2023-02-21T01:40:19.993Z,99.80
2023-02-21T01:41:19.943Z,99.99
2023-02-21T01:42:19.962Z,99.70
2023-02-21T01:43:19.917Z,99.39
2023-02-21T01:44:19.904Z,99.70
2023-02-21T01:45:19.908Z,99.44
2023-02-21T01:46:19.873Z,99.65
2023-02-21T01:47:19.846Z,99.90
2023-02-21T01:48:19.830Z,99.29
2023-02-21T01:49:19.813Z,99.39
2023-02-21T01:50:19.833Z,99.76
2023-02-21T01:51:19.793Z,99.90
2023-02-21T01:52:19.764Z,99.49
2023-02-21T01:53:19.739Z,99.80
2023-02-21T01:54:19.730Z,99.80
2023-02-21T01:55:19.750Z,99.99
2023-02-21T01:56:19.690Z,99.60
2023-02-21T01:57:19.697Z,99.80
2023-02-21T01:58:19.654Z,99.49
2023-02-21T01:59:19.642Z,99.99
2023-02-21T02:00:19.651Z,99.99
2023-02-21T02:01:19.619Z,99.80
2023-02-21T02:02:19.585Z,99.29
2023-02-21T02:03:19.576Z,99.99
2023-02-21T02:04:19.593Z,99.49
2023-02-21T02:05:19.536Z,99.55
2023-02-21T02:06:19.552Z,99.86
2023-02-21T02:07:19.499Z,99.29
2023-02-21T02:08:19.485Z,99.18
2023-02-21T02:09:19.467Z,99.49
2023-02-21T02:10:19.473Z,99.60
2023-02-21T02:11:19.461Z,99.39
2023-02-21T02:12:19.416Z,99.18
2023-02-21T02:13:19.398Z,99.24
2023-02-21T02:14:19.377Z,99.90
2023-02-21T02:15:19.362Z,99.60
2023-02-21T02:16:19.370Z,99.90
2023-02-21T02:17:19.324Z,99.80
2023-02-21T02:18:19.305Z,99.29
2023-02-21T02:19:19.311Z,99.60
2023-02-21T02:20:19.271Z,99.90
2023-02-21T02:21:19.281Z,99.96
2023-02-21T02:22:19.241Z,99.90
2023-02-21T02:23:19.221Z,99.90
2023-02-21T02:24:19.203Z,99.99
2023-02-21T02:25:19.186Z,99.90
2023-02-21T02:26:19.196Z,99.99
2023-02-21T02:27:19.148Z,99.99
2023-02-21T02:28:19.162Z,99.99
2023-02-21T02:29:19.120Z,99.99
2023-02-21T02:30:19.119Z,99.99
2023-02-21T02:31:19.352Z,99.99
2023-02-21T02:32:19.081Z,99.99
2023-02-21T02:33:19.079Z,99.99
2023-02-21T02:34:19.027Z,99.99
2023-02-21T02:35:19.007Z,99.99
2023-02-21T02:36:19.018Z,99.99
2023-02-21T02:37:18.977Z,99.99
2023-02-21T02:38:18.953Z,99.99
2023-02-21T02:39:18.951Z,99.99
2023-02-21T02:40:18.919Z,99.99
2023-02-21T02:41:18.926Z,99.99
2023-02-21T02:42:18.894Z,99.99
2023-02-21T02:43:18.863Z,99.99
2023-02-21T02:44:18.846Z,99.99
2023-02-21T02:45:18.837Z,99.99
2023-02-21T02:46:18.859Z,99.99
2023-02-21T02:47:18.809Z,99.99
2023-02-21T02:48:18.777Z,99.99
2023-02-21T02:49:18.765Z,99.99
2023-02-21T02:50:18.744Z,99.99
2023-02-21T02:51:18.757Z,99.99
2023-02-21T02:52:18.719Z,99.99
2023-02-21T02:53:18.691Z,99.99
2023-02-21T02:54:18.677Z,99.99
2023-02-21T02:55:18.656Z,99.99
2023-02-21T02:56:18.666Z,99.99
2023-02-21T02:57:18.623Z,99.99
2023-02-21T02:58:18.605Z,99.99
2023-02-21T02:59:18.588Z,99.99
2023-02-21T03:00:18.568Z,99.99
2023-02-21T03:01:18.602Z,99.99
2023-02-21T03:02:18.537Z,99.99
2023-02-21T03:03:18.574Z,99.99
2023-02-21T03:04:18.502Z,99.99
2023-02-21T03:05:18.481Z,99.99
2023-02-21T03:06:18.493Z,99.99
2023-02-21T03:07:18.447Z,99.99
2023-02-21T03:08:18.433Z,99.99
2023-02-21T03:09:18.408Z,99.99
2023-02-21T03:10:18.401Z,99.99
2023-02-21T03:11:18.408Z,99.99
2023-02-21T03:12:18.359Z,99.99
2023-02-21T03:13:18.344Z,99.99
2023-02-21T03:14:18.325Z,99.99
2023-02-21T03:15:18.314Z,99.99
2023-02-21T03:16:18.349Z,99.99
2023-02-21T03:17:18.274Z,99.99
2023-02-21T03:18:18.258Z,99.99
2023-02-21T03:19:18.240Z,99.99
2023-02-21T03:20:18.224Z,99.99
2023-02-21T03:21:18.233Z,99.99
2023-02-21T03:22:18.195Z,99.99
2023-02-21T03:23:18.178Z,99.99
2023-02-21T03:24:18.164Z,99.99
2023-02-21T03:25:18.133Z,99.99
2023-02-21T03:26:18.151Z,99.99
2023-02-21T03:27:18.101Z,99.99
2023-02-21T03:28:18.089Z,99.99
2023-02-21T03:29:18.068Z,99.99
2023-02-21T03:30:18.126Z,99.99
2023-02-21T03:31:18.277Z,99.99
2023-02-21T03:32:18.069Z,99.99
2023-02-21T03:33:18.001Z,99.99
2023-02-21T03:34:17.981Z,99.99
2023-02-21T03:35:17.968Z,99.99
2023-02-21T03:36:17.976Z,99.99
2023-02-21T03:37:17.942Z,99.99
2023-02-21T03:38:17.919Z,99.99
2023-02-21T03:39:17.900Z,99.99
2023-02-21T03:40:17.886Z,99.99
2023-02-21T03:41:17.898Z,99.99
2023-02-21T03:42:17.844Z,99.99
2023-02-21T03:43:17.830Z,99.99
2023-02-21T03:44:17.807Z,99.99
2023-02-21T03:45:17.790Z,99.99
2023-02-21T03:46:17.826Z,99.99
2023-02-21T03:47:17.755Z,99.99
2023-02-21T03:48:29.881Z,99.99
2023-02-21T03:49:19.725Z,99.99
2023-02-21T03:50:17.705Z,99.99
2023-02-21T03:51:17.734Z,99.99
2023-02-21T03:52:17.671Z,99.99
2023-02-21T03:53:17.654Z,99.99
2023-02-21T03:54:17.637Z,99.99
2023-02-21T03:55:17.623Z,99.99
2023-02-21T03:56:17.630Z,99.99
2023-02-21T03:57:17.585Z,99.99
2023-02-21T03:58:17.570Z,99.99
2023-02-21T03:59:17.564Z,99.99
2023-02-21T04:00:17.537Z,99.99
2023-02-21T04:01:17.782Z,99.99
2023-02-21T04:02:17.509Z,99.99
2023-02-21T04:03:17.488Z,99.99
2023-02-21T04:04:17.469Z,99.99
2023-02-21T04:05:17.450Z,99.99
2023-02-21T04:06:17.464Z,99.99
2023-02-21T04:07:17.424Z,99.99
2023-02-21T04:08:17.402Z,99.99
2023-02-21T04:09:17.388Z,99.99
2023-02-21T04:10:17.372Z,99.99
2023-02-21T04:11:17.415Z,99.99
2023-02-21T04:12:17.336Z,99.99
2023-02-21T04:13:17.318Z,99.99
2023-02-21T04:14:17.296Z,99.99
2023-02-21T04:15:17.310Z,99.99
2023-02-21T04:16:17.332Z,99.99
2023-02-21T04:17:17.251Z,99.99
2023-02-21T04:18:17.241Z,99.99
2023-02-21T04:19:17.218Z,99.99
2023-02-21T04:20:17.232Z,99.99
2023-02-21T04:21:17.212Z,99.99
2023-02-21T04:22:17.163Z,99.99
2023-02-21T04:23:17.155Z,99.99
2023-02-21T04:24:17.137Z,99.99
2023-02-21T04:25:17.110Z,99.99
2023-02-21T04:26:17.124Z,99.99
2023-02-21T04:27:17.082Z,99.99
2023-02-21T04:28:17.065Z,99.99
2023-02-21T04:29:17.049Z,99.99
2023-02-21T04:30:17.072Z,99.99
2023-02-21T04:31:17.321Z,99.99
2023-02-21T04:32:17.119Z,99.99
2023-02-21T04:33:16.995Z,99.99
2023-02-21T04:34:16.966Z,99.99
2023-02-21T04:35:16.976Z,99.99
2023-02-21T04:36:16.953Z,99.99
2023-02-21T04:37:16.903Z,99.99
2023-02-21T04:38:16.883Z,99.99
2023-02-21T04:39:16.873Z,99.99
2023-02-21T04:40:16.847Z,99.99
2023-02-21T04:41:17.069Z,99.99
2023-02-21T04:42:16.819Z,99.99
2023-02-21T04:43:16.813Z,99.99
2023-02-21T04:44:16.790Z,99.99
2023-02-21T04:45:16.812Z,99.99
2023-02-21T04:46:16.785Z,99.99
2023-02-21T04:47:16.762Z,99.99
2023-02-21T04:48:16.718Z,99.99
2023-02-21T04:49:16.697Z,99.99
2023-02-21T04:50:16.677Z,99.99
2023-02-21T04:51:16.783Z,99.99
2023-02-21T04:52:16.677Z,99.99
2023-02-21T04:53:16.622Z,99.99
2023-02-21T04:54:16.613Z,99.99
2023-02-21T04:55:16.597Z,99.99
2023-02-21T04:56:16.614Z,99.99
2023-02-21T04:57:16.585Z,99.99
2023-02-21T04:58:16.536Z,99.99
2023-02-21T04:59:16.520Z,99.99
2023-02-21T05:00:16.535Z,99.99
2023-02-21T05:01:17.052Z,99.99
2023-02-21T05:02:16.484Z,99.99
2023-02-21T05:03:16.463Z,99.99
2023-02-21T05:04:16.460Z,99.99
2023-02-21T05:05:16.501Z,99.99
2023-02-21T05:06:16.406Z,99.99
2023-02-21T05:07:16.415Z,99.99
2023-02-21T05:08:16.373Z,99.99
2023-02-21T05:09:16.352Z,99.99
2023-02-21T05:10:16.336Z,99.99
2023-02-21T05:11:16.621Z,99.99
2023-02-21T05:12:16.330Z,99.99
2023-02-21T05:13:16.282Z,99.99
2023-02-21T05:14:16.265Z,99.99
2023-02-21T05:15:16.246Z,99.99
2023-02-21T05:16:16.297Z,99.99
2023-02-21T05:17:16.240Z,99.99
2023-02-21T05:18:16.197Z,99.99
2023-02-21T05:19:16.180Z,99.99
2023-02-21T05:20:16.161Z,99.99
2023-02-21T05:21:16.463Z,99.99
2023-02-21T05:22:16.160Z,99.99
2023-02-21T05:23:16.109Z,99.99
2023-02-21T05:24:16.093Z,99.99
2023-02-21T05:25:16.081Z,99.99
2023-02-21T05:26:16.091Z,99.99
2023-02-21T05:27:16.074Z,99.99
2023-02-21T05:28:16.025Z,99.99
2023-02-21T05:29:16.011Z,99.99
2023-02-21T05:30:16.039Z,99.99
2023-02-21T05:31:16.355Z,99.99
2023-02-21T05:32:16.018Z,99.99
2023-02-21T05:33:15.943Z,99.99
2023-02-21T05:34:15.921Z,99.99
2023-02-21T05:35:15.916Z,99.99
2023-02-21T05:36:15.885Z,99.99
2023-02-21T05:37:15.926Z,99.99
2023-02-21T05:38:15.860Z,99.99
2023-02-21T05:39:15.859Z,99.99
2023-02-21T05:40:15.829Z,99.99
2023-02-21T05:41:16.286Z,99.99
2023-02-21T05:42:15.821Z,99.99
2023-02-21T05:43:15.780Z,99.99
2023-02-21T05:44:15.758Z,99.99
2023-02-21T05:45:15.741Z,99.99
2023-02-21T05:46:15.821Z,99.99
2023-02-21T05:47:15.710Z,99.99
2023-02-21T05:48:15.692Z,99.99
2023-02-21T05:49:15.673Z,99.99
2023-02-21T05:50:15.661Z,99.99
2023-02-21T05:51:15.997Z,99.99
2023-02-21T05:52:15.670Z,99.99
2023-02-21T05:53:15.627Z,99.99
2023-02-21T05:54:15.590Z,99.99
2023-02-21T05:55:15.580Z,99.99
2023-02-21T05:56:15.570Z,99.99
2023-02-21T05:57:15.582Z,99.99
2023-02-21T05:58:15.521Z,99.99
2023-02-21T05:59:15.502Z,99.99
2023-02-21T06:00:15.489Z,99.99
2023-02-21T06:01:15.832Z,99.99
2023-02-21T06:02:15.503Z,99.99
2023-02-21T06:03:15.466Z,99.99
2023-02-21T06:04:15.410Z,99.99
2023-02-21T06:05:15.395Z,99.99
2023-02-21T06:06:15.377Z,99.99
2023-02-21T06:07:15.392Z,99.99
2023-02-21T06:08:15.429Z,99.99
2023-02-21T06:09:15.325Z,99.99
2023-02-21T06:10:15.316Z,99.99
2023-02-21T06:11:15.577Z,99.99
2023-02-21T06:12:15.309Z,99.99
2023-02-21T06:13:15.251Z,99.99
2023-02-21T06:14:15.240Z,99.99
2023-02-21T06:15:15.225Z,99.99
2023-02-21T06:16:15.209Z,99.99
2023-02-21T06:17:15.212Z,99.99
2023-02-21T06:18:15.161Z,99.99
2023-02-21T06:19:15.155Z,99.99
2023-02-21T06:20:15.230Z,99.99
2023-02-21T06:21:15.359Z,99.99
2023-02-21T06:22:15.131Z,99.99
2023-02-21T06:23:15.079Z,99.99
2023-02-21T06:24:15.064Z,99.99
2023-02-21T06:25:15.048Z,99.99
2023-02-21T06:26:15.031Z,99.99
2023-02-21T06:27:15.041Z,99.99
2023-02-21T06:28:14.997Z,99.99
2023-02-21T06:29:14.973Z,99.99
2023-02-21T06:30:14.979Z,99.99
2023-02-21T06:31:15.206Z,99.99
2023-02-21T06:32:14.982Z,99.99
2023-02-21T06:33:14.913Z,99.99
2023-02-21T06:34:14.898Z,99.99
2023-02-21T06:35:14.873Z,99.99
2023-02-21T06:36:14.861Z,99.99
2023-02-21T06:37:14.879Z,99.99
2023-02-21T06:38:14.828Z,99.99
2023-02-21T06:39:14.805Z,99.80
2023-02-21T06:40:14.800Z,99.80
2023-02-21T06:41:14.983Z,99.99
2023-02-21T06:42:14.781Z,99.99
2023-02-21T06:43:15.011Z,99.99
2023-02-21T06:44:14.716Z,99.99
2023-02-21T06:45:14.706Z,99.99
2023-02-21T06:46:14.746Z,99.99
2023-02-21T06:47:14.693Z,99.99
2023-02-21T06:48:14.645Z,99.99
2023-02-21T06:49:14.630Z,99.99
2023-02-21T06:50:14.635Z,99.99
2023-02-21T06:51:14.950Z,99.99
2023-02-21T06:52:14.604Z,99.99
2023-02-21T06:53:14.562Z,99.99
2023-02-21T06:54:14.549Z,99.99
2023-02-21T06:55:14.523Z,99.99
2023-02-21T06:56:14.505Z,99.99
2023-02-21T06:57:14.514Z,99.99
2023-02-21T06:58:14.473Z,99.99
2023-02-21T06:59:14.458Z,99.99
2023-02-21T07:00:14.439Z,99.99
2023-02-21T07:01:14.841Z,99.99
2023-02-21T07:02:14.437Z,99.99
2023-02-21T07:03:14.390Z,99.99
2023-02-21T07:04:14.375Z,99.99
2023-02-21T07:05:14.357Z,99.99
2023-02-21T07:06:14.337Z,99.99
2023-02-21T07:07:14.349Z,99.99
2023-02-21T07:08:14.302Z,99.99
2023-02-21T07:09:14.284Z,99.99
2023-02-21T07:10:14.271Z,99.99
2023-02-21T07:11:14.631Z,99.99
2023-02-21T07:12:14.268Z,99.99
2023-02-21T07:13:14.221Z,99.99
2023-02-21T07:14:14.207Z,99.99
2023-02-21T07:15:14.183Z,99.99
2023-02-21T07:16:14.277Z,99.99
2023-02-21T07:17:14.182Z,99.99
2023-02-21T07:18:14.132Z,99.99
2023-02-21T07:19:14.111Z,99.99
2023-02-21T07:20:14.094Z,99.99
2023-02-21T07:21:14.390Z,99.99
2023-02-21T07:22:14.095Z,99.99
2023-02-21T07:23:14.041Z,99.99
2023-02-21T07:24:14.020Z,99.99
2023-02-21T07:25:14.008Z,99.99
2023-02-21T07:26:13.987Z,99.99
2023-02-21T07:27:14.007Z,99.99
2023-02-21T07:28:13.951Z,99.99
2023-02-21T07:29:13.972Z,99.99
2023-02-21T07:30:14.021Z,99.99
2023-02-21T07:31:14.926Z,99.99
2023-02-21T07:32:13.960Z,99.99
2023-02-21T07:33:13.895Z,99.99
2023-02-21T07:34:13.843Z,99.91
2023-02-21T07:35:13.830Z,99.99
2023-02-21T07:36:13.825Z,99.99
2023-02-21T07:37:13.825Z,99.99
2023-02-21T07:38:13.780Z,99.60
2023-02-21T07:39:13.772Z,99.81
2023-02-21T07:40:13.742Z,99.51
2023-02-21T07:41:14.172Z,99.60
2023-02-21T07:42:13.735Z,99.40
2023-02-21T07:43:13.720Z,99.51
2023-02-21T07:44:13.671Z,99.46
2023-02-21T07:45:13.667Z,99.77
2023-02-21T07:46:13.645Z,99.25
2023-02-21T07:47:13.659Z,99.46
2023-02-21T07:48:13.631Z,99.35
2023-02-21T07:49:13.583Z,99.77
2023-02-21T07:50:13.573Z,99.15
2023-02-21T07:51:13.798Z,98.79
2023-02-21T07:52:13.532Z,99.31
2023-02-21T07:53:15.248Z,99.21
2023-02-21T07:54:13.498Z,99.00
2023-02-21T07:55:13.498Z,99.00
2023-02-21T07:56:13.457Z,98.59
2023-02-21T07:57:13.435Z,98.54
2023-02-21T07:58:13.453Z,97.97
2023-02-21T07:59:13.402Z,99.00
2023-02-21T08:00:13.386Z,98.90
2023-02-21T08:01:13.784Z,98.28
2023-02-21T08:02:13.354Z,98.69
2023-02-21T08:03:13.359Z,98.49
2023-02-21T08:04:13.314Z,98.90
2023-02-21T08:05:13.294Z,98.59
2023-02-21T08:06:13.283Z,98.90
2023-02-21T08:07:13.262Z,98.49
2023-02-21T08:08:13.276Z,98.65
2023-02-21T08:09:13.221Z,98.65
2023-02-21T08:10:13.201Z,98.65
2023-02-21T08:11:13.357Z,98.44
2023-02-21T08:12:13.169Z,98.54
2023-02-21T08:13:13.179Z,97.82
2023-02-21T08:14:13.142Z,98.44
2023-02-21T08:15:13.118Z,97.82
2023-02-21T08:16:13.100Z,98.49
2023-02-21T08:17:14.105Z,98.65
2023-02-21T08:18:13.091Z,98.75
2023-02-21T08:19:13.044Z,98.96
2023-02-21T08:20:13.020Z,98.54
2023-02-21T08:21:13.338Z,98.44
2023-02-21T08:22:12.989Z,98.24
2023-02-21T08:23:13.525Z,98.54
2023-02-21T08:24:13.278Z,98.33
2023-02-21T08:25:12.939Z,98.24
2023-02-21T08:26:12.918Z,98.19
2023-02-21T08:27:12.894Z,98.19
2023-02-21T08:28:12.907Z,98.60
2023-02-21T08:29:12.862Z,98.24
2023-02-21T08:30:12.911Z,98.60
2023-02-21T08:31:13.024Z,98.39
2023-02-21T08:32:12.823Z,98.65
2023-02-21T08:33:12.820Z,98.33
2023-02-21T08:34:12.819Z,99.57
2023-02-21T08:35:12.750Z,98.54
2023-02-21T08:36:12.732Z,98.75
2023-02-21T08:37:12.720Z,98.70
2023-02-21T08:38:12.725Z,98.44
2023-02-21T08:39:12.680Z,98.39
2023-02-21T08:40:12.676Z,98.96
2023-02-21T08:41:12.906Z,98.85
2023-02-21T08:42:12.620Z,98.75
2023-02-21T08:43:12.634Z,98.85
2023-02-21T08:44:12.596Z,98.70
2023-02-21T08:45:12.566Z,98.39
2023-02-21T08:46:12.592Z,98.33
2023-02-21T08:47:12.533Z,98.91
2023-02-21T08:48:12.545Z,98.91
2023-02-21T08:49:12.495Z,98.70
2023-02-21T08:50:13.480Z,98.39
2023-02-21T08:51:12.454Z,98.50
2023-02-21T08:52:12.437Z,98.80
2023-02-21T08:53:14.961Z,98.44
2023-02-21T08:54:12.418Z,98.08
2023-02-21T08:55:12.393Z,99.21
2023-02-21T08:56:12.365Z,98.65
2023-02-21T08:57:12.343Z,98.39
2023-02-21T08:58:12.358Z,99.21
2023-02-21T08:59:12.331Z,99.32
2023-02-21T09:00:12.288Z,99.21
2023-02-21T09:01:12.652Z,98.75
2023-02-21T09:02:12.331Z,98.19
2023-02-21T09:03:12.260Z,98.70
2023-02-21T09:04:12.224Z,99.32
2023-02-21T09:05:12.206Z,99.01
2023-02-21T09:06:12.193Z,99.01
2023-02-21T09:07:12.163Z,98.45
2023-02-21T09:08:12.179Z,98.70
2023-02-21T09:09:12.162Z,98.60
2023-02-21T09:10:12.103Z,98.55
2023-02-21T09:11:12.241Z,98.70
2023-02-21T09:12:12.077Z,98.60
2023-02-21T09:13:12.048Z,98.86
2023-02-21T09:14:12.057Z,99.17
2023-02-21T09:15:12.006Z,99.27
2023-02-21T09:16:11.999Z,98.96
2023-02-21T09:17:11.980Z,99.17
2023-02-21T09:18:11.980Z,99.07
2023-02-21T09:19:11.935Z,98.86
2023-02-21T09:20:11.915Z,98.92
2023-02-21T09:21:11.977Z,98.66
2023-02-21T09:22:11.878Z,99.58
2023-02-21T09:23:11.894Z,99.12
2023-02-21T09:24:11.842Z,99.74
2023-02-21T09:25:11.822Z,99.43
2023-02-21T09:26:11.812Z,98.92
2023-02-21T09:27:11.792Z,98.92
2023-02-21T09:28:11.801Z,99.12
2023-02-21T09:29:11.777Z,99.02
2023-02-21T09:30:11.768Z,98.92
2023-02-21T09:31:11.715Z,99.33
2023-02-21T09:32:11.746Z,99.07
2023-02-21T09:33:11.679Z,99.33
2023-02-21T09:34:11.689Z,99.33
2023-02-21T09:35:11.639Z,99.27
2023-02-21T09:36:11.615Z,99.79
2023-02-21T09:37:11.599Z,99.22
2023-02-21T09:38:11.607Z,99.89
2023-02-21T09:39:11.585Z,99.48
2023-02-21T09:40:11.541Z,99.99
2023-02-21T09:41:11.535Z,99.99
2023-02-21T09:42:11.503Z,99.99
2023-02-21T09:43:11.515Z,99.99
2023-02-21T09:44:11.466Z,99.99
2023-02-21T09:45:11.444Z,99.99
2023-02-21T09:46:11.512Z,99.99
2023-02-21T09:47:11.410Z,99.99
2023-02-21T09:48:11.421Z,99.99
2023-02-21T09:49:11.371Z,99.99
2023-02-21T09:50:13.169Z,99.99
2023-02-21T09:51:12.573Z,99.99
2023-02-21T09:52:11.315Z,99.84
2023-02-21T09:53:11.320Z,99.99
2023-02-21T09:54:11.296Z,99.99
2023-02-21T09:55:11.255Z,99.99
2023-02-21T09:56:11.237Z,99.69
2023-02-21T09:57:11.216Z,99.99
2023-02-21T09:58:11.225Z,99.99
2023-02-21T09:59:11.180Z,99.99
2023-02-21T10:00:11.151Z,99.99
2023-02-21T10:01:11.156Z,99.99
2023-02-21T10:02:11.122Z,99.99
2023-02-21T10:03:11.126Z,99.99
2023-02-21T10:04:11.082Z,99.99
2023-02-21T10:05:11.062Z,99.99
2023-02-21T10:06:11.033Z,99.99
2023-02-21T10:07:11.013Z,99.99
2023-02-21T10:08:11.021Z,99.99
2023-02-21T10:09:10.981Z,99.99
2023-02-21T10:10:10.957Z,99.99
2023-02-21T10:11:10.942Z,99.99
2023-02-21T10:12:10.915Z,99.99
2023-02-21T10:13:10.924Z,99.95
2023-02-21T10:14:10.872Z,99.03
2023-02-21T10:15:10.850Z,99.95
2023-02-21T10:16:10.871Z,99.75
2023-02-21T10:17:10.816Z,99.99
2023-02-21T10:18:10.822Z,99.40
2023-02-21T10:19:10.782Z,99.80
2023-02-21T10:20:10.754Z,98.68
2023-02-21T10:21:10.918Z,99.13
2023-02-21T10:22:10.715Z,99.75
2023-02-21T10:23:10.725Z,99.99
2023-02-21T10:24:10.688Z,98.88
2023-02-21T10:25:10.669Z,98.88
2023-02-21T10:26:10.644Z,99.35
2023-02-21T10:27:10.614Z,98.53
2023-02-21T10:28:10.621Z,98.22
2023-02-21T10:29:10.570Z,99.04
2023-02-21T10:30:10.644Z,98.12
2023-02-21T10:31:10.584Z,98.43
2023-02-21T10:32:10.558Z,99.09
2023-02-21T10:33:10.519Z,98.22
2023-02-21T10:34:10.472Z,98.53
2023-02-21T10:35:10.458Z,98.43
2023-02-21T10:36:10.430Z,98.94
2023-02-21T10:37:10.442Z,98.28
2023-02-21T10:38:10.418Z,98.28
2023-02-21T10:39:10.372Z,97.15
2023-02-21T10:40:10.377Z,96.54
2023-02-21T10:41:10.322Z,97.05
2023-02-21T10:42:10.304Z,97.05
2023-02-21T10:43:10.316Z,97.21
2023-02-21T10:44:10.263Z,97.00
2023-02-21T10:45:10.238Z,96.66
2023-02-21T10:46:10.259Z,96.39
2023-02-21T10:47:10.207Z,96.04
2023-02-21T10:48:10.223Z,95.94
2023-02-21T10:49:10.159Z,95.53
2023-02-21T10:50:10.141Z,95.84
2023-02-21T10:51:10.114Z,95.53
2023-02-21T10:52:10.096Z,94.71
2023-02-21T10:53:10.170Z,96.00
2023-02-21T10:54:10.054Z,96.51
2023-02-21T10:55:19.997Z,95.03
2023-02-21T10:56:11.013Z,95.03
2023-02-21T10:57:10.006Z,94.01
2023-02-21T10:58:09.999Z,93.91
2023-02-21T10:59:09.959Z,94.15
2023-02-21T11:00:10.073Z,94.93
2023-02-21T11:01:09.937Z,93.80
2023-02-21T11:02:09.983Z,93.74
2023-02-21T11:03:09.902Z,94.46
2023-02-21T11:04:09.851Z,94.32
2023-02-21T11:05:09.830Z,94.32
2023-02-21T11:06:09.837Z,94.01
2023-02-21T11:07:09.789Z,93.70
2023-02-21T11:08:09.810Z,93.80
2023-02-21T11:09:09.746Z,94.21
2023-02-21T11:10:09.722Z,94.11
2023-02-21T11:11:09.746Z,94.42
2023-02-21T11:12:09.695Z,94.42
2023-02-21T11:13:09.703Z,94.52
2023-02-21T11:14:09.656Z,94.01
2023-02-21T11:15:09.629Z,94.15
2023-02-21T11:16:09.661Z,94.26
2023-02-21T11:17:09.585Z,94.67
2023-02-21T11:18:09.564Z,95.07
2023-02-21T11:19:09.566Z,95.22
2023-02-21T11:20:09.517Z,95.84
2023-02-21T11:21:09.507Z,96.34
2023-02-21T11:22:09.472Z,96.34
2023-02-21T11:23:09.448Z,96.25
2023-02-21T11:24:09.460Z,96.25
2023-02-21T11:25:09.410Z,96.55
2023-02-21T11:26:09.436Z,96.55
2023-02-21T11:27:09.364Z,96.55
2023-02-21T11:28:09.349Z,96.34
2023-02-21T11:29:09.355Z,96.41
2023-02-21T11:30:09.323Z,96.41
2023-02-21T11:31:09.391Z,95.48
2023-02-21T11:32:09.302Z,95.79
2023-02-21T11:33:09.235Z,96.00
2023-02-21T11:34:09.244Z,95.69
2023-02-21T11:35:09.196Z,96.30
2023-02-21T11:36:09.175Z,96.30
2023-02-21T11:37:09.158Z,96.30
2023-02-21T11:38:09.129Z,96.30
2023-02-21T11:39:09.138Z,95.89
2023-02-21T11:40:09.085Z,96.20
2023-02-21T11:41:09.063Z,95.89
2023-02-21T11:42:09.050Z,95.69
2023-02-21T11:43:09.021Z,95.89
2023-02-21T11:44:09.030Z,94.81
2023-02-21T11:45:08.979Z,95.84
2023-02-21T11:46:09.007Z,95.69
2023-02-21T11:47:08.934Z,95.89
2023-02-21T11:48:08.912Z,95.79
2023-02-21T11:49:08.894Z,96.00
2023-02-21T11:50:08.882Z,95.18
2023-02-21T11:51:08.873Z,94.36
2023-02-21T11:52:08.833Z,94.87
2023-02-21T11:53:08.808Z,95.59
2023-02-21T11:54:08.824Z,95.89
2023-02-21T11:55:08.787Z,96.20
2023-02-21T11:56:08.747Z,95.59
2023-02-21T11:57:08.721Z,96.04
2023-02-21T11:58:08.702Z,95.43
2023-02-21T11:59:08.703Z,96.55
2023-02-21T12:00:08.655Z,96.04
2023-02-21T12:01:08.632Z,95.94
2023-02-21T12:02:08.619Z,96.34
2023-02-21T12:03:08.587Z,96.75
2023-02-21T12:04:08.591Z,96.86
2023-02-21T12:05:08.539Z,96.14
2023-02-21T12:06:08.552Z,96.66
2023-02-21T12:07:08.498Z,96.45
2023-02-21T12:08:08.480Z,96.20
2023-02-21T12:09:08.485Z,95.94
2023-02-21T12:10:08.430Z,96.25
2023-02-21T12:11:08.443Z,96.04
2023-02-21T12:12:08.393Z,96.80
2023-02-21T12:13:08.361Z,96.25
2023-02-21T12:14:08.374Z,96.59
2023-02-21T12:15:08.327Z,97.36
2023-02-21T12:16:08.347Z,97.92
2023-02-21T12:17:08.289Z,98.33
2023-02-21T12:18:08.277Z,98.49
2023-02-21T12:19:08.261Z,98.49
2023-02-21T12:20:08.235Z,98.18
2023-02-21T12:21:08.198Z,98.18
2023-02-21T12:22:08.171Z,98.79
2023-02-21T12:23:08.149Z,98.79
2023-02-21T12:24:08.156Z,98.54
2023-02-21T12:25:08.111Z,98.38
2023-02-21T12:26:08.086Z,98.03
2023-02-21T12:27:08.066Z,98.44
2023-02-21T12:28:08.056Z,98.13
2023-02-21T12:29:08.082Z,98.44
2023-02-21T12:30:08.021Z,97.31
2023-02-21T12:31:08.008Z,97.31
2023-02-21T12:32:08.085Z,97.72
2023-02-21T12:33:07.948Z,97.06
2023-02-21T12:34:07.921Z,97.06
2023-02-21T12:35:07.909Z,97.11
2023-02-21T12:36:07.889Z,97.11
2023-02-21T12:37:07.893Z,97.11
2023-02-21T12:38:07.845Z,97.72
2023-02-21T12:39:07.854Z,97.52
2023-02-21T12:40:07.812Z,97.27
2023-02-21T12:41:07.781Z,96.96
2023-02-21T12:42:07.763Z,97.16
2023-02-21T12:43:07.741Z,97.37
2023-02-21T12:44:07.751Z,97.47
2023-02-21T12:45:07.707Z,97.37
2023-02-21T12:46:07.714Z,97.06
2023-02-21T12:47:07.668Z,97.06
2023-02-21T12:48:07.641Z,96.96
2023-02-21T12:49:07.656Z,97.16
2023-02-21T12:50:07.600Z,96.96
2023-02-21T12:51:07.579Z,96.81
2023-02-21T12:52:07.557Z,96.29